sensor_id;sensor_type;location;lat;lon;timestamp;temperature;humidity
10042;DHT22;5061;49.068;12.058;2023-03-11T00:02:31;2.30;99.90
10042;DHT22;5061;49.068;12.058;2023-03-11T00:05:53;2.20;99.90
10042;DHT22;5061;49.068;12.058;2023-03-11T00:09:13;2.20;99.90
10042;DHT22;5061;49.068;12.058;2023-03-11T00:12:34;2.20;99.90
10042;DHT22;5061;49.068;12.058;2023-03-11T00:15:55;2.20;99.90
10042;DHT22;5061;49.068;12.058;2023-03-11T00:19:16;2.20;99.90
10042;DHT22;5061;49.068;12.058;2023-03-11T00:22:37;2.20;99.90
10042;DHT22;5061;49.068;12.058;2023-03-11T00:25:57;2.20;99.90
10042;DHT22;5061;49.068;12.058;2023-03-11T00:29:20;2.20;99.90
10042;DHT22;5061;49.068;12.058;2023-03-11T00:32:41;2.10;99.90
10042;DHT22;5061;49.068;12.058;2023-03-11T00:36:02;2.10;99.90
10042;DHT22;5061;49.068;12.058;2023-03-11T00:39:23;2.10;99.90
10042;DHT22;5061;49.068;12.058;2023-03-11T00:42:43;2.10;99.90
10042;DHT22;5061;49.068;12.058;2023-03-11T00:46:04;2.10;99.90
10042;DHT22;5061;49.068;12.058;2023-03-11T00:49:25;2.10;99.90
10042;DHT22;5061;49.068;12.058;2023-03-11T00:52:47;2.10;99.90
10042;DHT22;5061;49.068;12.058;2023-03-11T00:56:09;2.00;99.90
10042;DHT22;5061;49.068;12.058;2023-03-11T00:59:30;2.00;99.90
10042;DHT22;5061;49.068;12.058;2023-03-11T01:02:52;2.00;99.90
10042;DHT22;5061;49.068;12.058;2023-03-11T01:06:13;2.00;99.90
10042;DHT22;5061;49.068;12.058;2023-03-11T01:09:34;2.00;99.90
10042;DHT22;5061;49.068;12.058;2023-03-11T01:12:54;2.00;99.90
10042;DHT22;5061;49.068;12.058;2023-03-11T01:16:15;1.90;99.90
10042;DHT22;5061;49.068;12.058;2023-03-11T01:19:36;2.00;99.90
10042;DHT22;5061;49.068;12.058;2023-03-11T01:22:56;1.90;99.90
10042;DHT22;5061;49.068;12.058;2023-03-11T01:26:19;1.90;99.90
10042;DHT22;5061;49.068;12.058;2023-03-11T01:29:43;1.90;99.90
10042;DHT22;5061;49.068;12.058;2023-03-11T01:33:04;1.90;99.90
10042;DHT22;5061;49.068;12.058;2023-03-11T01:36:26;1.90;99.90
10042;DHT22;5061;49.068;12.058;2023-03-11T01:39:47;1.80;99.90
10042;DHT22;5061;49.068;12.058;2023-03-11T01:50:19;1.80;99.90
10042;DHT22;5061;49.068;12.058;2023-03-11T01:53:40;1.80;99.90
10042;DHT22;5061;49.068;12.058;2023-03-11T01:57:04;1.80;99.90
10042;DHT22;5061;49.068;12.058;2023-03-11T02:00:25;1.80;99.90
10042;DHT22;5061;49.068;12.058;2023-03-11T02:03:46;1.70;99.90
10042;DHT22;5061;49.068;12.058;2023-03-11T02:07:08;1.70;99.90
10042;DHT22;5061;49.068;12.058;2023-03-11T02:10:30;1.70;99.90
10042;DHT22;5061;49.068;12.058;2023-03-11T02:13:52;1.70;99.90
10042;DHT22;5061;49.068;12.058;2023-03-11T02:17:14;1.70;99.90
10042;DHT22;5061;49.068;12.058;2023-03-11T02:24:14;1.70;99.90
10042;DHT22;5061;49.068;12.058;2023-03-11T02:27:39;1.70;99.90
10042;DHT22;5061;49.068;12.058;2023-03-11T02:31:00;1.60;99.90
10042;DHT22;5061;49.068;12.058;2023-03-11T02:34:29;1.60;99.90
10042;DHT22;5061;49.068;12.058;2023-03-11T02:37:51;1.60;99.90
10042;DHT22;5061;49.068;12.058;2023-03-11T02:41:12;1.60;99.90
10042;DHT22;5061;49.068;12.058;2023-03-11T02:44:33;1.60;99.90
10042;DHT22;5061;49.068;12.058;2023-03-11T02:47:56;1.60;99.90
10042;DHT22;5061;49.068;12.058;2023-03-11T02:51:17;1.50;99.90
10042;DHT22;5061;49.068;12.058;2023-03-11T02:54:38;1.50;99.90
10042;DHT22;5061;49.068;12.058;2023-03-11T02:57:59;1.50;99.90
10042;DHT22;5061;49.068;12.058;2023-03-11T03:01:20;1.50;99.90
10042;DHT22;5061;49.068;12.058;2023-03-11T03:04:40;1.50;99.90
10042;DHT22;5061;49.068;12.058;2023-03-11T03:08:01;1.40;99.90
10042;DHT22;5061;49.068;12.058;2023-03-11T03:11:22;1.40;99.90
10042;DHT22;5061;49.068;12.058;2023-03-11T03:14:43;1.40;99.90
10042;DHT22;5061;49.068;12.058;2023-03-11T03:18:03;1.40;99.90
10042;DHT22;5061;49.068;12.058;2023-03-11T03:21:27;1.40;99.90
10042;DHT22;5061;49.068;12.058;2023-03-11T03:24:48;1.40;99.90
10042;DHT22;5061;49.068;12.058;2023-03-11T03:28:09;1.40;99.90
10042;DHT22;5061;49.068;12.058;2023-03-11T03:31:39;1.40;99.90
10042;DHT22;5061;49.068;12.058;2023-03-11T03:35:06;1.30;99.90
10042;DHT22;5061;49.068;12.058;2023-03-11T03:38:27;1.30;99.90
10042;DHT22;5061;49.068;12.058;2023-03-11T03:41:47;1.30;99.90
10042;DHT22;5061;49.068;12.058;2023-03-11T03:45:09;1.30;99.90
10042;DHT22;5061;49.068;12.058;2023-03-11T03:48:29;1.30;99.90
10042;DHT22;5061;49.068;12.058;2023-03-11T03:51:50;1.30;99.90
10042;DHT22;5061;49.068;12.058;2023-03-11T03:55:11;1.30;99.90
10042;DHT22;5061;49.068;12.058;2023-03-11T03:58:32;1.30;99.90
10042;DHT22;5061;49.068;12.058;2023-03-11T04:01:52;1.30;99.90
10042;DHT22;5061;49.068;12.058;2023-03-11T04:05:13;1.20;99.90
10042;DHT22;5061;49.068;12.058;2023-03-11T04:08:34;1.20;99.90
10042;DHT22;5061;49.068;12.058;2023-03-11T04:11:54;1.20;99.90
10042;DHT22;5061;49.068;12.058;2023-03-11T04:15:15;1.20;99.90
10042;DHT22;5061;49.068;12.058;2023-03-11T04:18:36;1.20;99.90
10042;DHT22;5061;49.068;12.058;2023-03-11T04:21:56;1.20;99.90
10042;DHT22;5061;49.068;12.058;2023-03-11T04:25:17;1.10;99.90
10042;DHT22;5061;49.068;12.058;2023-03-11T04:28:38;1.10;99.90
10042;DHT22;5061;49.068;12.058;2023-03-11T04:31:58;1.10;99.90
10042;DHT22;5061;49.068;12.058;2023-03-11T04:35:19;1.10;99.90
10042;DHT22;5061;49.068;12.058;2023-03-11T04:38:40;1.00;99.90
10042;DHT22;5061;49.068;12.058;2023-03-11T04:42:00;1.00;99.90
10042;DHT22;5061;49.068;12.058;2023-03-11T04:45:21;1.00;99.90
10042;DHT22;5061;49.068;12.058;2023-03-11T04:48:42;0.90;99.90
10042;DHT22;5061;49.068;12.058;2023-03-11T04:52:02;0.90;99.90
10042;DHT22;5061;49.068;12.058;2023-03-11T04:55:23;0.90;99.90
10042;DHT22;5061;49.068;12.058;2023-03-11T04:58:44;0.90;99.90
10042;DHT22;5061;49.068;12.058;2023-03-11T05:02:05;0.80;99.90
10042;DHT22;5061;49.068;12.058;2023-03-11T05:05:25;0.80;99.90
10042;DHT22;5061;49.068;12.058;2023-03-11T05:08:46;0.70;99.90
10042;DHT22;5061;49.068;12.058;2023-03-11T05:12:08;0.70;99.90
10042;DHT22;5061;49.068;12.058;2023-03-11T05:15:30;0.70;99.90
10042;DHT22;5061;49.068;12.058;2023-03-11T05:18:50;0.70;99.90
10042;DHT22;5061;49.068;12.058;2023-03-11T05:22:11;0.70;99.90
10042;DHT22;5061;49.068;12.058;2023-03-11T05:25:32;0.70;99.90
10042;DHT22;5061;49.068;12.058;2023-03-11T05:28:54;0.60;99.90
10042;DHT22;5061;49.068;12.058;2023-03-11T05:32:15;0.60;99.90
10042;DHT22;5061;49.068;12.058;2023-03-11T05:35:36;0.60;99.90
10042;DHT22;5061;49.068;12.058;2023-03-11T05:38:56;0.60;99.90
10042;DHT22;5061;49.068;12.058;2023-03-11T05:42:17;0.50;99.90
10042;DHT22;5061;49.068;12.058;2023-03-11T05:45:38;0.50;99.90
10042;DHT22;5061;49.068;12.058;2023-03-11T05:48:59;0.50;99.90
10042;DHT22;5061;49.068;12.058;2023-03-11T05:52:20;0.50;99.90
10042;DHT22;5061;49.068;12.058;2023-03-11T05:55:40;0.50;99.90
10042;DHT22;5061;49.068;12.058;2023-03-11T05:59:01;0.40;99.90
10042;DHT22;5061;49.068;12.058;2023-03-11T06:02:21;0.40;99.90
10042;DHT22;5061;49.068;12.058;2023-03-11T06:05:46;0.40;99.90
10042;DHT22;5061;49.068;12.058;2023-03-11T06:09:13;0.40;99.90
10042;DHT22;5061;49.068;12.058;2023-03-11T06:12:34;0.30;99.90
10042;DHT22;5061;49.068;12.058;2023-03-11T06:15:54;0.30;99.90
10042;DHT22;5061;49.068;12.058;2023-03-11T06:19:15;0.30;99.90
10042;DHT22;5061;49.068;12.058;2023-03-11T06:22:36;0.20;99.90
10042;DHT22;5061;49.068;12.058;2023-03-11T06:25:58;0.20;99.90
10042;DHT22;5061;49.068;12.058;2023-03-11T06:29:19;0.20;99.90
10042;DHT22;5061;49.068;12.058;2023-03-11T06:32:45;0.10;99.90
10042;DHT22;5061;49.068;12.058;2023-03-11T06:36:06;0.10;99.90
10042;DHT22;5061;49.068;12.058;2023-03-11T06:39:27;0.10;99.90
10042;DHT22;5061;49.068;12.058;2023-03-11T06:42:47;0.10;99.90
10042;DHT22;5061;49.068;12.058;2023-03-11T06:46:11;0.20;99.90
10042;DHT22;5061;49.068;12.058;2023-03-11T06:49:31;0.30;99.90
10042;DHT22;5061;49.068;12.058;2023-03-11T06:52:52;0.30;99.90
10042;DHT22;5061;49.068;12.058;2023-03-11T06:56:13;0.40;99.90
10042;DHT22;5061;49.068;12.058;2023-03-11T06:59:34;0.40;99.90
10042;DHT22;5061;49.068;12.058;2023-03-11T07:02:55;0.40;99.90
10042;DHT22;5061;49.068;12.058;2023-03-11T07:06:18;0.40;99.90
10042;DHT22;5061;49.068;12.058;2023-03-11T07:09:39;0.40;99.90
10042;DHT22;5061;49.068;12.058;2023-03-11T07:13:00;0.40;99.90
10042;DHT22;5061;49.068;12.058;2023-03-11T07:16:23;0.40;99.90
10042;DHT22;5061;49.068;12.058;2023-03-11T07:19:45;0.40;99.90
10042;DHT22;5061;49.068;12.058;2023-03-11T07:23:05;0.40;99.90
10042;DHT22;5061;49.068;12.058;2023-03-11T07:26:27;0.40;99.90
10042;DHT22;5061;49.068;12.058;2023-03-11T07:29:47;0.40;99.90
10042;DHT22;5061;49.068;12.058;2023-03-11T07:33:09;0.40;99.90
10042;DHT22;5061;49.068;12.058;2023-03-11T07:36:29;0.40;99.90
10042;DHT22;5061;49.068;12.058;2023-03-11T07:39:50;0.40;99.90
10042;DHT22;5061;49.068;12.058;2023-03-11T07:43:11;0.40;99.90
10042;DHT22;5061;49.068;12.058;2023-03-11T07:46:31;0.40;99.90
10042;DHT22;5061;49.068;12.058;2023-03-11T07:49:52;0.50;99.90
10042;DHT22;5061;49.068;12.058;2023-03-11T07:53:13;0.50;99.90
10042;DHT22;5061;49.068;12.058;2023-03-11T07:56:34;0.50;99.90
10042;DHT22;5061;49.068;12.058;2023-03-11T07:59:55;0.60;99.90
10042;DHT22;5061;49.068;12.058;2023-03-11T08:03:15;0.70;99.90
10042;DHT22;5061;49.068;12.058;2023-03-11T08:06:36;0.70;99.90
10042;DHT22;5061;49.068;12.058;2023-03-11T08:09:57;0.80;99.90
10042;DHT22;5061;49.068;12.058;2023-03-11T08:13:18;0.80;99.90
10042;DHT22;5061;49.068;12.058;2023-03-11T08:16:39;0.80;99.90
10042;DHT22;5061;49.068;12.058;2023-03-11T08:20:00;0.80;99.90
10042;DHT22;5061;49.068;12.058;2023-03-11T08:23:21;0.80;99.90
10042;DHT22;5061;49.068;12.058;2023-03-11T08:26:42;0.80;99.90
10042;DHT22;5061;49.068;12.058;2023-03-11T08:30:03;0.90;99.90
10042;DHT22;5061;49.068;12.058;2023-03-11T08:33:24;0.90;99.90
10042;DHT22;5061;49.068;12.058;2023-03-11T08:36:44;1.00;99.90
10042;DHT22;5061;49.068;12.058;2023-03-11T08:40:05;1.10;99.90
10042;DHT22;5061;49.068;12.058;2023-03-11T08:43:27;1.20;99.90
10042;DHT22;5061;49.068;12.058;2023-03-11T08:46:47;1.20;99.90
10042;DHT22;5061;49.068;12.058;2023-03-11T08:50:13;1.20;99.90
10042;DHT22;5061;49.068;12.058;2023-03-11T08:53:34;1.30;99.90
10042;DHT22;5061;49.068;12.058;2023-03-11T08:56:56;1.30;99.90
10042;DHT22;5061;49.068;12.058;2023-03-11T09:00:18;1.40;99.90
10042;DHT22;5061;49.068;12.058;2023-03-11T09:03:39;1.40;99.90
10042;DHT22;5061;49.068;12.058;2023-03-11T09:07:00;1.40;99.90
10042;DHT22;5061;49.068;12.058;2023-03-11T09:10:20;1.50;99.90
10042;DHT22;5061;49.068;12.058;2023-03-11T09:13:41;1.50;99.90
10042;DHT22;5061;49.068;12.058;2023-03-11T09:17:02;1.50;99.90
10042;DHT22;5061;49.068;12.058;2023-03-11T09:20:23;1.50;99.90
10042;DHT22;5061;49.068;12.058;2023-03-11T09:23:43;1.40;99.90
10042;DHT22;5061;49.068;12.058;2023-03-11T09:27:04;1.30;99.90
10042;DHT22;5061;49.068;12.058;2023-03-11T09:30:25;1.20;99.90
10042;DHT22;5061;49.068;12.058;2023-03-11T09:33:46;1.10;99.90
10042;DHT22;5061;49.068;12.058;2023-03-11T09:37:07;1.00;99.90
10042;DHT22;5061;49.068;12.058;2023-03-11T09:40:38;1.00;99.90
10042;DHT22;5061;49.068;12.058;2023-03-11T09:44:22;1.00;99.90
10042;DHT22;5061;49.068;12.058;2023-03-11T09:51:28;0.90;99.90
10042;DHT22;5061;49.068;12.058;2023-03-11T09:54:52;0.80;99.90
10042;DHT22;5061;49.068;12.058;2023-03-11T09:58:21;0.80;99.90
10042;DHT22;5061;49.068;12.058;2023-03-11T10:01:47;0.70;99.90
10042;DHT22;5061;49.068;12.058;2023-03-11T10:05:21;0.70;99.90
10042;DHT22;5061;49.068;12.058;2023-03-11T10:08:51;0.70;99.90
10042;DHT22;5061;49.068;12.058;2023-03-11T10:16:23;0.60;99.90
10042;DHT22;5061;49.068;12.058;2023-03-11T10:20:00;0.60;99.90
10042;DHT22;5061;49.068;12.058;2023-03-11T10:26:54;0.70;99.90
10042;DHT22;5061;49.068;12.058;2023-03-11T10:30:42;0.70;99.90
10042;DHT22;5061;49.068;12.058;2023-03-11T10:34:25;0.80;99.90
10042;DHT22;5061;49.068;12.058;2023-03-11T10:37:52;0.90;99.90
10042;DHT22;5061;49.068;12.058;2023-03-11T10:41:30;1.00;99.90
10042;DHT22;5061;49.068;12.058;2023-03-11T10:44:55;1.10;99.90
10042;DHT22;5061;49.068;12.058;2023-03-11T10:48:17;1.20;99.90
10042;DHT22;5061;49.068;12.058;2023-03-11T10:51:39;1.30;99.90
10042;DHT22;5061;49.068;12.058;2023-03-11T10:55:02;1.50;99.90
10042;DHT22;5061;49.068;12.058;2023-03-11T10:58:29;1.60;99.90
10042;DHT22;5061;49.068;12.058;2023-03-11T11:02:02;1.60;99.90
10042;DHT22;5061;49.068;12.058;2023-03-11T11:05:33;1.70;99.90
10042;DHT22;5061;49.068;12.058;2023-03-11T11:09:23;1.70;99.90
10042;DHT22;5061;49.068;12.058;2023-03-11T11:12:53;1.80;99.90
10042;DHT22;5061;49.068;12.058;2023-03-11T11:19:45;2.00;99.90
10042;DHT22;5061;49.068;12.058;2023-03-11T11:23:30;2.10;99.90
10042;DHT22;5061;49.068;12.058;2023-03-11T11:27:22;2.30;99.90
10042;DHT22;5061;49.068;12.058;2023-03-11T11:30:57;2.30;99.90
10042;DHT22;5061;49.068;12.058;2023-03-11T11:38:00;2.40;99.90
10042;DHT22;5061;49.068;12.058;2023-03-11T11:41:26;2.30;99.90
10042;DHT22;5061;49.068;12.058;2023-03-11T11:45:34;2.30;99.90
10042;DHT22;5061;49.068;12.058;2023-03-11T11:52:15;2.10;99.90
10042;DHT22;5061;49.068;12.058;2023-03-11T11:55:43;2.10;99.90
10042;DHT22;5061;49.068;12.058;2023-03-11T11:59:16;2.00;99.90
10042;DHT22;5061;49.068;12.058;2023-03-11T12:06:44;1.90;99.90
10042;DHT22;5061;49.068;12.058;2023-03-11T12:17:07;1.90;99.90
10042;DHT22;5061;49.068;12.058;2023-03-11T12:20:43;1.90;99.90
10042;DHT22;5061;49.068;12.058;2023-03-11T12:24:43;2.00;99.90
10042;DHT22;5061;49.068;12.058;2023-03-11T12:28:13;2.10;99.90
10042;DHT22;5061;49.068;12.058;2023-03-11T12:31:37;2.20;99.90
10042;DHT22;5061;49.068;12.058;2023-03-11T12:38:39;2.20;99.90
10042;DHT22;5061;49.068;12.058;2023-03-11T12:42:16;2.20;99.90
10042;DHT22;5061;49.068;12.058;2023-03-11T12:49:12;2.10;99.90
10042;DHT22;5061;49.068;12.058;2023-03-11T12:52:51;2.10;99.90
10042;DHT22;5061;49.068;12.058;2023-03-11T12:56:38;2.10;99.90
10042;DHT22;5061;49.068;12.058;2023-03-11T13:00:25;2.00;99.90
10042;DHT22;5061;49.068;12.058;2023-03-11T13:07:50;2.00;99.90
10042;DHT22;5061;49.068;12.058;2023-03-11T13:18:43;2.10;99.90
10042;DHT22;5061;49.068;12.058;2023-03-11T13:22:17;2.10;99.90
10042;DHT22;5061;49.068;12.058;2023-03-11T13:39:52;2.10;99.90
10042;DHT22;5061;49.068;12.058;2023-03-11T13:43:22;2.10;99.90
10042;DHT22;5061;49.068;12.058;2023-03-11T13:46:46;2.10;99.90
10042;DHT22;5061;49.068;12.058;2023-03-11T13:50:23;2.10;99.90
10042;DHT22;5061;49.068;12.058;2023-03-11T13:57:34;2.10;99.90
10042;DHT22;5061;49.068;12.058;2023-03-11T14:00:59;2.20;99.90
10042;DHT22;5061;49.068;12.058;2023-03-11T14:04:35;2.20;99.90
10042;DHT22;5061;49.068;12.058;2023-03-11T14:11:36;2.20;99.90
10042;DHT22;5061;49.068;12.058;2023-03-11T14:15:03;2.20;99.90
10042;DHT22;5061;49.068;12.058;2023-03-11T14:18:28;2.10;99.90
10042;DHT22;5061;49.068;12.058;2023-03-11T14:21:50;2.10;99.90
10042;DHT22;5061;49.068;12.058;2023-03-11T14:25:19;2.10;99.90
10042;DHT22;5061;49.068;12.058;2023-03-11T14:28:44;2.00;99.90
10042;DHT22;5061;49.068;12.058;2023-03-11T14:32:35;2.00;99.90
10042;DHT22;5061;49.068;12.058;2023-03-11T14:36:02;2.00;99.90
10042;DHT22;5061;49.068;12.058;2023-03-11T14:39:30;2.00;99.90
10042;DHT22;5061;49.068;12.058;2023-03-11T14:42:53;2.00;99.90
10042;DHT22;5061;49.068;12.058;2023-03-11T14:46:20;2.00;99.90
10042;DHT22;5061;49.068;12.058;2023-03-11T14:49:42;2.00;99.90
10042;DHT22;5061;49.068;12.058;2023-03-11T14:53:11;2.00;99.90
10042;DHT22;5061;49.068;12.058;2023-03-11T14:56:39;2.00;99.90
10042;DHT22;5061;49.068;12.058;2023-03-11T15:00:02;2.10;99.90
10042;DHT22;5061;49.068;12.058;2023-03-11T15:03:29;2.00;99.90
10042;DHT22;5061;49.068;12.058;2023-03-11T15:06:53;2.00;99.90
10042;DHT22;5061;49.068;12.058;2023-03-11T15:10:14;2.10;99.90
10042;DHT22;5061;49.068;12.058;2023-03-11T15:13:36;2.10;99.90
10042;DHT22;5061;49.068;12.058;2023-03-11T15:20:36;2.20;99.90
10042;DHT22;5061;49.068;12.058;2023-03-11T15:24:03;2.10;99.90
10042;DHT22;5061;49.068;12.058;2023-03-11T15:27:31;2.20;99.90
10042;DHT22;5061;49.068;12.058;2023-03-11T15:34:35;2.10;99.90
10042;DHT22;5061;49.068;12.058;2023-03-11T15:41:32;2.10;99.90
10042;DHT22;5061;49.068;12.058;2023-03-11T15:45:09;2.10;99.90
10042;DHT22;5061;49.068;12.058;2023-03-11T15:52:13;2.00;99.90
10042;DHT22;5061;49.068;12.058;2023-03-11T15:55:33;2.10;99.90
10042;DHT22;5061;49.068;12.058;2023-03-11T15:58:54;2.00;99.90
10042;DHT22;5061;49.068;12.058;2023-03-11T16:02:24;2.00;99.90
10042;DHT22;5061;49.068;12.058;2023-03-11T16:05:45;1.90;99.90
10042;DHT22;5061;49.068;12.058;2023-03-11T16:09:06;1.90;99.90
10042;DHT22;5061;49.068;12.058;2023-03-11T16:12:27;1.90;99.90
10042;DHT22;5061;49.068;12.058;2023-03-11T16:15:47;1.90;99.90
10042;DHT22;5061;49.068;12.058;2023-03-11T16:19:10;1.90;99.90
10042;DHT22;5061;49.068;12.058;2023-03-11T16:22:33;1.90;99.90
10042;DHT22;5061;49.068;12.058;2023-03-11T16:25:59;1.90;99.90
10042;DHT22;5061;49.068;12.058;2023-03-11T16:29:20;1.90;99.90
10042;DHT22;5061;49.068;12.058;2023-03-11T16:32:43;1.80;99.90
10042;DHT22;5061;49.068;12.058;2023-03-11T16:36:04;1.80;99.90
10042;DHT22;5061;49.068;12.058;2023-03-11T16:39:24;1.80;99.90
10042;DHT22;5061;49.068;12.058;2023-03-11T16:42:45;1.80;99.90
10042;DHT22;5061;49.068;12.058;2023-03-11T16:46:06;1.80;99.90
10042;DHT22;5061;49.068;12.058;2023-03-11T16:49:27;1.80;99.90
10042;DHT22;5061;49.068;12.058;2023-03-11T16:52:49;1.80;99.90
10042;DHT22;5061;49.068;12.058;2023-03-11T16:56:10;1.80;99.90
10042;DHT22;5061;49.068;12.058;2023-03-11T16:59:30;1.80;99.90
10042;DHT22;5061;49.068;12.058;2023-03-11T17:02:51;1.80;99.90
10042;DHT22;5061;49.068;12.058;2023-03-11T17:06:12;1.80;99.90
10042;DHT22;5061;49.068;12.058;2023-03-11T17:09:33;1.70;99.90
10042;DHT22;5061;49.068;12.058;2023-03-11T17:12:54;1.70;99.90
10042;DHT22;5061;49.068;12.058;2023-03-11T17:16:15;1.70;99.90
10042;DHT22;5061;49.068;12.058;2023-03-11T17:19:36;1.70;99.90
10042;DHT22;5061;49.068;12.058;2023-03-11T17:22:57;1.60;99.90
10042;DHT22;5061;49.068;12.058;2023-03-11T17:26:17;1.60;99.90
10042;DHT22;5061;49.068;12.058;2023-03-11T17:29:38;1.60;99.90
10042;DHT22;5061;49.068;12.058;2023-03-11T17:32:59;1.50;99.90
10042;DHT22;5061;49.068;12.058;2023-03-11T17:36:19;1.50;99.90
10042;DHT22;5061;49.068;12.058;2023-03-11T17:39:40;1.50;99.90
10042;DHT22;5061;49.068;12.058;2023-03-11T17:43:00;1.50;99.90
10042;DHT22;5061;49.068;12.058;2023-03-11T17:46:21;1.50;99.90
10042;DHT22;5061;49.068;12.058;2023-03-11T17:49:42;1.40;99.90
10042;DHT22;5061;49.068;12.058;2023-03-11T17:53:03;1.40;99.90
10042;DHT22;5061;49.068;12.058;2023-03-11T17:56:25;1.40;99.90
10042;DHT22;5061;49.068;12.058;2023-03-11T17:59:48;1.40;99.90
10042;DHT22;5061;49.068;12.058;2023-03-11T18:03:10;1.40;99.90
10042;DHT22;5061;49.068;12.058;2023-03-11T18:06:30;1.40;99.90
10042;DHT22;5061;49.068;12.058;2023-03-11T18:09:54;1.30;99.90
10042;DHT22;5061;49.068;12.058;2023-03-11T18:13:14;1.30;99.90
10042;DHT22;5061;49.068;12.058;2023-03-11T18:16:35;1.30;99.90
10042;DHT22;5061;49.068;12.058;2023-03-11T18:19:57;1.30;99.90
10042;DHT22;5061;49.068;12.058;2023-03-11T18:23:18;1.30;99.90
10042;DHT22;5061;49.068;12.058;2023-03-11T18:26:39;1.30;99.90
10042;DHT22;5061;49.068;12.058;2023-03-11T18:30:00;1.20;99.90
10042;DHT22;5061;49.068;12.058;2023-03-11T18:33:22;1.20;99.90
10042;DHT22;5061;49.068;12.058;2023-03-11T18:36:43;1.20;99.90
10042;DHT22;5061;49.068;12.058;2023-03-11T18:40:04;1.20;99.90
10042;DHT22;5061;49.068;12.058;2023-03-11T18:43:26;1.20;99.90
10042;DHT22;5061;49.068;12.058;2023-03-11T18:46:46;1.20;99.90
10042;DHT22;5061;49.068;12.058;2023-03-11T18:50:08;1.20;99.90
10042;DHT22;5061;49.068;12.058;2023-03-11T18:53:28;1.20;99.90
10042;DHT22;5061;49.068;12.058;2023-03-11T18:56:49;1.20;99.90
10042;DHT22;5061;49.068;12.058;2023-03-11T19:00:10;1.20;99.90
10042;DHT22;5061;49.068;12.058;2023-03-11T19:03:32;1.10;99.90
10042;DHT22;5061;49.068;12.058;2023-03-11T19:06:53;1.20;99.90
10042;DHT22;5061;49.068;12.058;2023-03-11T19:10:14;1.20;99.90
10042;DHT22;5061;49.068;12.058;2023-03-11T19:13:37;1.10;99.90
10042;DHT22;5061;49.068;12.058;2023-03-11T19:17:00;1.10;99.90
10042;DHT22;5061;49.068;12.058;2023-03-11T19:20:21;1.10;99.90
10042;DHT22;5061;49.068;12.058;2023-03-11T19:23:43;1.10;99.90
10042;DHT22;5061;49.068;12.058;2023-03-11T19:27:04;1.10;99.90
10042;DHT22;5061;49.068;12.058;2023-03-11T19:30:25;1.10;99.90
10042;DHT22;5061;49.068;12.058;2023-03-11T19:33:46;1.00;99.90
10042;DHT22;5061;49.068;12.058;2023-03-11T19:37:09;1.00;99.90
10042;DHT22;5061;49.068;12.058;2023-03-11T19:40:30;0.90;99.90
10042;DHT22;5061;49.068;12.058;2023-03-11T19:43:52;0.90;99.90
10042;DHT22;5061;49.068;12.058;2023-03-11T19:47:13;0.80;99.90
10042;DHT22;5061;49.068;12.058;2023-03-11T19:50:33;0.80;99.90
10042;DHT22;5061;49.068;12.058;2023-03-11T19:53:54;0.80;99.90
10042;DHT22;5061;49.068;12.058;2023-03-11T19:57:15;0.70;99.90
10042;DHT22;5061;49.068;12.058;2023-03-11T20:00:36;0.70;99.90
10042;DHT22;5061;49.068;12.058;2023-03-11T20:03:56;0.60;99.90
10042;DHT22;5061;49.068;12.058;2023-03-11T20:07:18;0.60;99.90
10042;DHT22;5061;49.068;12.058;2023-03-11T20:10:44;0.60;99.90
10042;DHT22;5061;49.068;12.058;2023-03-11T20:14:05;0.50;99.90
10042;DHT22;5061;49.068;12.058;2023-03-11T20:17:26;0.50;99.90
10042;DHT22;5061;49.068;12.058;2023-03-11T20:20:47;0.50;99.90
10042;DHT22;5061;49.068;12.058;2023-03-11T20:24:08;0.50;99.90
10042;DHT22;5061;49.068;12.058;2023-03-11T20:27:29;0.50;99.90
10042;DHT22;5061;49.068;12.058;2023-03-11T20:30:50;0.40;99.90
10042;DHT22;5061;49.068;12.058;2023-03-11T20:34:11;0.40;99.90
10042;DHT22;5061;49.068;12.058;2023-03-11T20:37:32;0.30;99.90
10042;DHT22;5061;49.068;12.058;2023-03-11T20:40:56;0.30;99.90
10042;DHT22;5061;49.068;12.058;2023-03-11T20:44:16;0.20;99.90
10042;DHT22;5061;49.068;12.058;2023-03-11T20:47:37;0.20;99.90
10042;DHT22;5061;49.068;12.058;2023-03-11T20:51:02;0.10;99.90
10042;DHT22;5061;49.068;12.058;2023-03-11T20:54:23;0.10;99.90
10042;DHT22;5061;49.068;12.058;2023-03-11T20:57:44;0.00;99.90
10042;DHT22;5061;49.068;12.058;2023-03-11T21:04:38;0.00;99.90
10042;DHT22;5061;49.068;12.058;2023-03-11T21:08:04;-0.10;99.90
10042;DHT22;5061;49.068;12.058;2023-03-11T21:11:25;-0.20;99.90
10042;DHT22;5061;49.068;12.058;2023-03-11T21:14:46;-0.20;99.90
10042;DHT22;5061;49.068;12.058;2023-03-11T21:18:06;-0.30;99.90
10042;DHT22;5061;49.068;12.058;2023-03-11T21:21:27;-0.30;99.90
10042;DHT22;5061;49.068;12.058;2023-03-11T21:24:52;-0.30;99.90
10042;DHT22;5061;49.068;12.058;2023-03-11T21:28:12;-0.30;99.90
10042;DHT22;5061;49.068;12.058;2023-03-11T21:31:34;-0.30;99.90
10042;DHT22;5061;49.068;12.058;2023-03-11T21:34:58;-0.30;99.90
10042;DHT22;5061;49.068;12.058;2023-03-11T21:38:20;-0.30;99.90
10042;DHT22;5061;49.068;12.058;2023-03-11T21:41:41;-0.30;99.90
10042;DHT22;5061;49.068;12.058;2023-03-11T21:45:02;-0.30;99.90
10042;DHT22;5061;49.068;12.058;2023-03-11T21:48:23;-0.30;99.90
10042;DHT22;5061;49.068;12.058;2023-03-11T21:51:46;-0.30;99.90
10042;DHT22;5061;49.068;12.058;2023-03-11T21:55:07;-0.30;99.90
10042;DHT22;5061;49.068;12.058;2023-03-11T21:58:28;-0.30;99.90
10042;DHT22;5061;49.068;12.058;2023-03-11T22:01:49;-0.20;99.90
10042;DHT22;5061;49.068;12.058;2023-03-11T22:05:10;-0.30;99.90
10042;DHT22;5061;49.068;12.058;2023-03-11T22:08:32;-0.30;99.90
10042;DHT22;5061;49.068;12.058;2023-03-11T22:11:52;-0.30;99.90
10042;DHT22;5061;49.068;12.058;2023-03-11T22:15:15;-0.30;99.90
10042;DHT22;5061;49.068;12.058;2023-03-11T22:18:36;-0.30;99.90
10042;DHT22;5061;49.068;12.058;2023-03-11T22:21:56;-0.30;99.90
10042;DHT22;5061;49.068;12.058;2023-03-11T22:25:23;-0.30;99.90
10042;DHT22;5061;49.068;12.058;2023-03-11T22:28:45;-0.30;99.90
10042;DHT22;5061;49.068;12.058;2023-03-11T22:32:06;-0.40;99.90
10042;DHT22;5061;49.068;12.058;2023-03-11T22:35:27;-0.40;99.90
10042;DHT22;5061;49.068;12.058;2023-03-11T22:38:51;-0.50;99.90
10042;DHT22;5061;49.068;12.058;2023-03-11T22:42:12;-0.50;99.90
10042;DHT22;5061;49.068;12.058;2023-03-11T22:45:32;-0.50;99.90
10042;DHT22;5061;49.068;12.058;2023-03-11T22:48:54;-0.60;99.90
10042;DHT22;5061;49.068;12.058;2023-03-11T22:52:14;-0.50;99.90
10042;DHT22;5061;49.068;12.058;2023-03-11T22:55:40;-0.50;99.90
10042;DHT22;5061;49.068;12.058;2023-03-11T22:59:03;-0.50;99.90
10042;DHT22;5061;49.068;12.058;2023-03-11T23:02:23;-0.60;99.90
10042;DHT22;5061;49.068;12.058;2023-03-11T23:05:44;-0.60;99.90
10042;DHT22;5061;49.068;12.058;2023-03-11T23:09:06;-0.60;99.90
10042;DHT22;5061;49.068;12.058;2023-03-11T23:12:26;-0.60;99.90
10042;DHT22;5061;49.068;12.058;2023-03-11T23:15:47;-0.60;99.90
10042;DHT22;5061;49.068;12.058;2023-03-11T23:19:08;-0.70;99.90
10042;DHT22;5061;49.068;12.058;2023-03-11T23:22:29;-0.70;99.90
10042;DHT22;5061;49.068;12.058;2023-03-11T23:25:50;-0.70;99.90